Time;durP1;ratioP1;P1;durP2;ratioP2;P2;SDS_P1;SDS_P2;PMS_P1;PMS_P2;Temp;Humidity;BMP_temperature;BMP_pressure;BME280_temperature;BME280_humidity;BME280_pressure;Samples;Min_cycle;Max_cycle;Signal;HPM_P1;HPM_P2
2023/09/05 00:00:04;;;;;;;7.00;6.07;;;;;;;15.90;94.27;101914.38;4861275;29;20021;-67
2023/09/05 00:02:29;;;;;;;9.50;6.05;;;;;;;15.71;94.28;101911.16;4858068;29;20073;-67
2023/09/05 00:04:56;;;;;;;8.98;6.32;;;;;;;15.54;95.49;101900.84;4839907;29;20073;-67
2023/09/05 00:07:22;;;;;;;9.70;6.40;;;;;;;15.54;95.23;101906.13;4843325;29;20032;-67
2023/09/05 00:09:47;;;;;;;10.18;7.53;;;;;;;15.32;96.79;101910.88;4841126;29;20048;-67
2023/09/05 00:12:12;;;;;;;7.22;6.53;;;;;;;15.25;97.21;101915.34;4847889;29;20394;-67
2023/09/05 00:14:38;;;;;;;6.78;6.10;;;;;;;15.20;96.73;101915.44;4843458;29;20386;-67
2023/09/05 00:17:04;;;;;;;8.60;6.70;;;;;;;15.10;98.02;101916.47;4859505;29;20048;-67
2023/09/05 00:19:29;;;;;;;8.43;6.93;;;;;;;15.15;98.31;101919.88;4831249;29;20037;-67
2023/09/05 00:21:55;;;;;;;7.15;6.28;;;;;;;15.05;97.89;101919.13;4840266;29;20029;-67
2023/09/05 00:24:33;;;;;;;8.98;6.85;;;;;;;14.98;98.05;101927.16;4856915;29;20109;-66
2023/09/05 00:27:07;;;;;;;7.47;6.65;;;;;;;15.02;98.89;101929.72;4843849;29;20040;-66
2023/09/05 00:29:32;;;;;;;9.45;6.90;;;;;;;14.93;99.36;101923.69;4858945;29;21460;-67
2023/09/05 00:31:59;;;;;;;10.70;8.00;;;;;;;15.08;100.00;101923.50;4838883;29;20042;-68
2023/09/05 00:34:32;;;;;;;12.45;7.93;;;;;;;15.13;100.00;101921.69;4837943;29;20069;-69
2023/09/05 00:37:00;;;;;;;9.13;7.13;;;;;;;15.02;99.59;101924.44;4856657;29;20120;-69
2023/09/05 00:39:26;;;;;;;9.98;7.45;;;;;;;14.85;100.00;101927.31;4827713;29;20037;-69
2023/09/05 00:42:05;;;;;;;11.57;7.43;;;;;;;14.81;100.00;101933.53;4933842;23;20874;-67
2023/09/05 00:54:54;;;;;;;8.90;7.10;;;;;;;14.66;100.00;101931.06;5063288;23;20045;-69
2023/09/05 00:57:21;;;;;;;8.43;7.63;;;;;;;14.66;100.00;101931.94;4882722;29;20105;-69
2023/09/05 00:59:47;;;;;;;9.48;7.82;;;;;;;14.65;100.00;101934.59;4879395;29;20488;-69
2023/09/05 01:02:12;;;;;;;8.40;7.60;;;;;;;14.54;100.00;101938.19;4859344;29;20073;-69
2023/09/05 01:07:31;;;;;;;10.02;7.93;;;;;;;14.55;100.00;101934.66;4891282;29;20056;-67
2023/09/05 01:10:20;;;;;;;9.27;7.40;;;;;;;14.41;100.00;101931.31;4898320;23;20050;-68
2023/09/05 01:12:45;;;;;;;8.07;7.28;;;;;;;14.49;100.00;101929.44;4959471;23;20061;-67
2023/09/05 01:17:48;;;;;;;8.60;7.80;;;;;;;14.46;100.00;101929.47;3821081;27;20107;-68
2023/09/05 01:45:12;;;;;;;9.07;6.70;;;;;;;14.53;100.00;101919.75;5159169;23;20413;-66
2023/09/05 01:47:38;;;;;;;9.35;6.68;;;;;;;14.59;99.55;101918.81;4957721;23;20019;-67
2023/09/05 01:52:38;;;;;;;7.28;6.40;;;;;;;14.77;98.47;101918.63;4923204;23;20527;-69
2023/09/05 01:55:04;;;;;;;6.95;6.25;;;;;;;14.68;98.55;101916.09;4850994;29;20041;-69
2023/09/05 01:57:30;;;;;;;6.65;6.05;;;;;;;14.70;98.74;101927.50;4867689;29;20037;-69
2023/09/05 01:59:56;;;;;;;7.95;6.45;;;;;;;14.56;98.88;101925.84;4863910;29;20176;-69
2023/09/05 02:02:21;;;;;;;7.05;6.38;;;;;;;14.55;99.26;101928.50;4865821;29;20132;-69
2023/09/05 02:04:47;;;;;;;7.43;6.40;;;;;;;14.63;99.05;101931.09;4852274;29;20048;-69
2023/09/05 02:07:12;;;;;;;8.68;6.50;;;;;;;14.65;98.91;101934.59;4849101;29;20041;-69
2023/09/05 02:09:38;;;;;;;7.70;5.80;;;;;;;14.68;98.73;101931.91;4858968;29;20096;-69
2023/09/05 02:12:03;;;;;;;10.73;6.63;;;;;;;14.69;98.61;101931.03;4881622;29;20494;-69
2023/09/05 02:14:29;;;;;;;6.97;6.15;;;;;;;14.63;98.21;101925.84;4866337;29;20156;-69
2023/09/05 02:16:54;;;;;;;10.40;6.28;;;;;;;14.57;98.79;101932.00;4854806;29;20121;-69
2023/09/05 02:19:20;;;;;;;6.97;6.05;;;;;;;14.51;99.02;101925.03;4872610;29;20020;-69
2023/09/05 02:21:49;;;;;;;8.57;6.53;;;;;;;14.67;99.23;101923.13;4842895;29;20520;-69
2023/09/05 02:24:15;;;;;;;8.13;6.25;;;;;;;14.68;99.17;101924.88;4888985;29;20032;-69
2023/09/05 02:26:40;;;;;;;7.30;6.20;;;;;;;14.73;98.81;101927.47;4852401;29;20064;-69
2023/09/05 02:29:05;;;;;;;8.15;6.05;;;;;;;14.64;99.33;101932.84;4855901;29;20124;-69
2023/09/05 02:31:31;;;;;;;9.10;6.80;;;;;;;14.75;98.92;101925.66;4848017;29;20043;-69
2023/09/05 02:33:56;;;;;;;7.53;6.22;;;;;;;14.73;98.91;101932.75;4861206;29;20396;-69
2023/09/05 02:36:22;;;;;;;7.00;5.97;;;;;;;14.67;98.74;101938.09;4869838;29;20473;-69
2023/09/05 02:38:47;;;;;;;8.43;6.50;;;;;;;14.67;98.69;101924.91;4868141;29;20032;-69
2023/09/05 02:41:14;;;;;;;8.68;6.60;;;;;;;14.71;99.00;101929.22;4865030;29;20033;-69
2023/09/05 02:43:40;;;;;;;7.15;6.45;;;;;;;14.74;98.66;101923.94;4891644;29;20473;-68
2023/09/05 02:46:06;;;;;;;8.02;6.82;;;;;;;14.77;98.74;101926.53;4880915;29;20029;-69
2023/09/05 02:48:32;;;;;;;9.00;7.45;;;;;;;14.83;98.36;101923.81;4866502;29;20039;-69
2023/09/05 02:51:02;;;;;;;8.75;6.85;;;;;;;14.84;98.04;101919.41;4847959;29;20401;-69
2023/09/05 02:53:27;;;;;;;7.25;6.47;;;;;;;14.83;97.89;101907.13;4874127;29;20093;-69
2023/09/05 02:55:53;;;;;;;7.43;6.70;;;;;;;14.79;97.88;101914.19;4853399;29;20083;-69
2023/09/05 02:58:19;;;;;;;9.48;6.70;;;;;;;14.82;97.66;101914.16;4878985;29;20064;-69
2023/09/05 03:00:47;;;;;;;8.13;6.18;;;;;;;14.78;97.66;101916.84;4853218;29;20041;-69
2023/09/05 03:03:13;;;;;;;9.32;6.70;;;;;;;14.73;97.76;101911.63;4850906;29;20119;-69
2023/09/05 03:05:38;;;;;;;7.97;6.30;;;;;;;14.82;97.57;101910.66;4849639;29;20869;-69
2023/09/05 03:08:06;;;;;;;9.85;6.60;;;;;;;14.81;97.55;101903.63;4862787;29;20029;-69
2023/09/05 03:10:31;;;;;;;7.30;6.60;;;;;;;14.83;97.01;101909.78;4861601;29;20397;-69
2023/09/05 03:12:57;;;;;;;7.97;6.72;;;;;;;14.83;97.21;101896.56;4846962;29;20113;-69
2023/09/05 03:15:23;;;;;;;10.07;7.53;;;;;;;14.79;97.37;101908.91;4860065;29;20040;-69
2023/09/05 03:17:48;;;;;;;8.60;7.35;;;;;;;14.85;97.21;101898.28;4844001;29;20482;-69
2023/09/05 03:20:15;;;;;;;8.02;6.50;;;;;;;14.87;96.72;101898.28;4848321;29;20036;-69
2023/09/05 03:22:41;;;;;;;7.97;7.00;;;;;;;14.81;97.13;101893.97;4859873;29;20041;-69
2023/09/05 03:25:07;;;;;;;7.72;6.47;;;;;;;14.81;97.04;101901.88;4848929;29;20056;-69
2023/09/05 03:27:32;;;;;;;9.00;6.20;;;;;;;14.84;97.01;101887.75;4861160;29;20032;-66
2023/09/05 03:29:58;;;;;;;9.23;6.90;;;;;;;14.77;97.40;101892.25;4884439;29;20372;-66
2023/09/05 03:32:23;;;;;;;8.68;6.70;;;;;;;14.80;96.99;101897.47;4858307;29;20040;-66
2023/09/05 03:34:51;;;;;;;9.02;6.40;;;;;;;14.80;97.15;101889.56;4846379;29;20029;-66
2023/09/05 03:37:16;;;;;;;7.47;6.20;;;;;;;14.78;96.84;101882.56;4842546;29;20037;-66
2023/09/05 03:39:43;;;;;;;6.97;5.97;;;;;;;14.83;96.56;101883.38;4877385;29;20029;-66
2023/09/05 03:42:10;;;;;;;8.10;6.55;;;;;;;14.76;97.03;101884.34;4855624;29;20040;-66
2023/09/05 03:44:36;;;;;;;7.18;6.07;;;;;;;14.80;96.75;101875.50;4873530;29;20044;-66
2023/09/05 03:47:01;;;;;;;7.35;6.55;;;;;;;14.79;96.91;101887.81;4865105;29;20044;-66
2023/09/05 03:49:27;;;;;;;9.65;6.90;;;;;;;14.73;97.03;101885.25;4843387;29;20025;-66
2023/09/05 03:51:56;;;;;;;7.75;6.95;;;;;;;14.80;96.67;101897.47;4845772;29;20450;-66
2023/09/05 03:54:22;;;;;;;8.63;6.85;;;;;;;14.78;96.50;101888.69;4858979;29;20060;-66
2023/09/05 03:56:50;;;;;;;6.88;6.05;;;;;;;14.73;96.93;101893.16;4874684;29;20060;-67
2023/09/05 03:59:15;;;;;;;7.63;6.57;;;;;;;14.69;96.88;101894.09;4864524;29;20397;-66
2023/09/05 04:01:41;;;;;;;9.38;6.80;;;;;;;14.67;97.17;101891.47;4856337;29;20040;-67
2023/09/05 04:04:09;;;;;;;9.55;6.88;;;;;;;14.58;96.99;101885.41;4874247;29;20361;-66
2023/09/05 04:06:37;;;;;;;8.35;6.72;;;;;;;14.56;97.32;101893.34;4891617;29;20017;-67
2023/09/05 04:09:02;;;;;;;8.85;7.10;;;;;;;14.60;97.33;101888.91;4876137;29;20035;-68
2023/09/05 04:11:28;;;;;;;7.20;6.50;;;;;;;14.49;97.59;101892.50;4840272;29;20430;-69
2023/09/05 04:13:53;;;;;;;7.25;6.00;;;;;;;14.52;97.43;101876.69;4848706;29;20036;-69
2023/09/05 04:16:19;;;;;;;8.20;6.78;;;;;;;14.48;97.48;101877.59;4862535;29;20371;-69
2023/09/05 04:18:44;;;;;;;7.80;6.95;;;;;;;14.51;97.80;101879.31;4869505;29;20037;-69
2023/09/05 04:21:11;;;;;;;8.27;7.38;;;;;;;14.50;97.28;101875.81;4860833;29;20541;-69
2023/09/05 04:23:36;;;;;;;8.07;6.25;;;;;;;14.58;96.89;101877.47;4846309;29;20389;-69
2023/09/05 04:26:02;;;;;;;6.85;6.10;;;;;;;14.55;96.66;101874.00;4859199;29;20047;-69
2023/09/05 04:28:29;;;;;;;9.50;6.07;;;;;;;14.51;96.61;101879.31;4876695;29;20025;-70
2023/09/05 04:30:57;;;;;;;7.20;6.05;;;;;;;14.53;96.38;101881.03;4877644;29;20085;-69
2023/09/05 04:33:31;;;;;;;8.40;6.30;;;;;;;14.62;96.12;101884.50;4852869;29;20037;-69
2023/09/05 04:35:56;;;;;;;10.50;6.20;;;;;;;14.62;95.93;101880.09;4864670;29;20064;-70
2023/09/05 04:38:22;;;;;;;8.80;5.60;;;;;;;14.75;95.32;101879.97;4862104;29;20044;-69
2023/09/05 04:40:47;;;;;;;7.15;5.53;;;;;;;14.69;94.98;101873.84;4869818;29;20043;-69
2023/09/05 04:43:13;;;;;;;7.68;6.15;;;;;;;14.72;94.97;101881.75;4876821;29;20593;-68
2023/09/05 04:45:38;;;;;;;7.80;5.78;;;;;;;14.77;94.81;101871.13;4866650;29;20161;-69
2023/09/05 04:48:04;;;;;;;6.63;5.65;;;;;;;14.74;94.88;101873.81;4845773;29;20090;-69
2023/09/05 04:50:29;;;;;;;6.18;5.47;;;;;;;14.76;94.72;101872.03;4850945;29;20067;-69
2023/09/05 04:52:56;;;;;;;6.30;5.70;;;;;;;14.72;95.04;101872.94;4888097;29;20056;-69
2023/09/05 04:55:22;;;;;;;11.43;6.03;;;;;;;14.64;95.72;101872.16;4867295;29;20036;-70
2023/09/05 04:57:47;;;;;;;7.05;5.47;;;;;;;14.56;95.54;101865.19;4870122;29;20045;-69
2023/09/05 05:00:18;;;;;;;7.28;5.82;;;;;;;14.54;95.88;101859.06;4854929;29;20036;-69
2023/09/05 05:02:44;;;;;;;8.23;6.50;;;;;;;14.52;96.50;101868.78;4893771;29;20133;-69
2023/09/05 05:05:11;;;;;;;11.15;5.97;;;;;;;14.51;96.37;101869.66;4881324;29;20037;-70
2023/09/05 05:07:37;;;;;;;7.22;6.20;;;;;;;14.39;97.28;101867.16;4860369;29;20442;-69
2023/09/05 05:10:03;;;;;;;7.47;6.60;;;;;;;14.47;96.87;101875.84;4847918;29;20041;-70
2023/09/05 05:12:29;;;;;;;7.38;6.55;;;;;;;14.48;96.83;101876.72;4866879;29;20104;-69
2023/09/05 05:14:54;;;;;;;9.18;6.18;;;;;;;14.52;96.65;101874.06;4870691;29;20039;-69
2023/09/05 05:17:20;;;;;;;7.32;5.93;;;;;;;14.58;96.33;101874.84;4879897;29;20032;-69
2023/09/05 05:19:47;;;;;;;7.63;5.90;;;;;;;14.65;95.81;101873.91;4895953;29;20107;-69
2023/09/05 05:22:13;;;;;;;8.48;6.55;;;;;;;14.56;96.29;101873.09;4864124;29;20044;-69
2023/09/05 05:24:38;;;;;;;7.53;6.30;;;;;;;14.69;95.33;101868.56;4849288;29;20035;-69
2023/09/05 05:27:04;;;;;;;7.10;5.75;;;;;;;14.83;94.25;101884.25;4848938;29;20048;-69
2023/09/05 05:29:32;;;;;;;6.72;6.03;;;;;;;14.85;94.21;101878.94;4861909;29;20051;-69
2023/09/05 05:32:00;;;;;;;7.50;5.70;;;;;;;15.02;93.42;101886.63;4843861;29;20433;-69
2023/09/05 05:34:25;;;;;;;7.50;5.93;;;;;;;15.12;92.55;101882.97;4849417;29;20093;-69
2023/09/05 05:36:51;;;;;;;9.20;6.20;;;;;;;15.19;92.26;101878.50;4848774;29;20041;-69
2023/09/05 05:39:21;;;;;;;7.28;6.22;;;;;;;15.25;92.10;101876.59;4871386;29;20017;-69
2023/09/05 05:41:47;;;;;;;7.72;5.80;;;;;;;15.35;91.59;101885.28;4842796;29;20119;-69
2023/09/05 05:44:12;;;;;;;8.57;5.70;;;;;;;15.48;90.79;101888.59;4863110;29;20077;-69
2023/09/05 05:46:39;;;;;;;9.05;5.57;;;;;;;15.54;90.05;101883.25;4859074;29;20092;-69
2023/09/05 05:49:57;;;;;;;6.38;5.63;;;;;;;15.65;90.76;101885.69;4843065;29;20051;-69
2023/09/05 05:52:23;;;;;;;8.60;5.40;;;;;;;15.73;89.78;101878.53;4841785;29;20068;-69
2023/09/05 05:54:49;;;;;;;7.35;5.65;;;;;;;15.80;89.89;101874.03;4862982;29;20037;-66
2023/09/05 05:57:15;;;;;;;9.23;5.18;;;;;;;16.03;88.26;101880.69;4863825;29;20527;-66
2023/09/05 05:59:40;;;;;;;7.25;5.30;;;;;;;16.15;87.41;101880.47;4850626;29;20036;-66
2023/09/05 06:02:06;;;;;;;8.77;4.97;;;;;;;16.30;87.82;101881.09;4854862;29;20045;-67
2023/09/05 06:04:31;;;;;;;6.75;4.88;;;;;;;16.42;88.85;101880.81;4854774;29;20043;-67
2023/09/05 06:06:57;;;;;;;5.85;4.80;;;;;;;17.05;85.30;101881.31;4867992;29;20044;-67
2023/09/05 06:09:22;;;;;;;6.38;5.22;;;;;;;18.41;81.88;101884.16;4852292;29;20064;-67
2023/09/05 06:11:48;;;;;;;7.68;4.10;;;;;;;20.26;71.46;101874.81;4876879;29;20412;-67
2023/09/05 06:14:15;;;;;;;7.78;4.15;;;;;;;21.58;65.81;101892.00;4862967;29;20046;-68
2023/09/05 06:16:40;;;;;;;4.57;3.80;;;;;;;22.13;60.82;101886.09;4880506;29;20110;-69
2023/09/05 06:19:08;;;;;;;6.38;3.72;;;;;;;23.47;57.33;101884.41;4865389;29;20032;-68
2023/09/05 06:21:34;;;;;;;5.63;3.15;;;;;;;24.19;55.33;101887.91;4861423;29;20033;-69
2023/09/05 06:23:59;;;;;;;6.88;3.28;;;;;;;25.23;51.05;101880.47;4846328;29;20048;-67
2023/09/05 06:26:25;;;;;;;3.85;2.78;;;;;;;25.62;48.87;101883.66;4866027;29;20433;-67
2023/09/05 06:28:51;;;;;;;4.22;3.28;;;;;;;25.54;50.44;101882.28;4862801;29;20040;-67
2023/09/05 06:31:17;;;;;;;4.22;2.90;;;;;;;26.14;46.51;101890.41;4872349;29;20068;-67
2023/09/05 06:33:42;;;;;;;3.55;2.53;;;;;;;26.78;47.89;101886.41;4881922;29;20032;-67
2023/09/05 06:36:10;;;;;;;4.03;2.65;;;;;;;27.02;45.40;101884.91;4861775;29;20045;-67
2023/09/05 06:38:36;;;;;;;4.05;2.88;;;;;;;28.27;43.78;101896.25;4878869;29;20066;-67
2023/09/05 06:41:08;;;;;;;5.90;3.35;;;;;;;28.26;43.67;101899.94;4880197;29;20375;-67
2023/09/05 06:43:34;;;;;;;4.57;2.63;;;;;;;28.37;41.71;101895.63;4878395;29;20036;-67
2023/09/05 06:46:04;;;;;;;6.05;3.08;;;;;;;28.49;41.86;101892.91;4862166;29;20362;-67
2023/09/05 06:48:29;;;;;;;4.88;2.85;;;;;;;28.54;40.79;101892.59;4861402;29;20049;-67
2023/09/05 06:51:00;;;;;;;4.45;2.50;;;;;;;27.19;43.83;101890.06;4895944;29;20055;-67
2023/09/05 06:53:29;;;;;;;;;;;;;;;27.79;46.31;101886.06;4883442;29;20057;-67
2023/09/05 06:55:55;;;;;;;3.33;2.78;;;;;;;25.00;49.57;101885.31;4884203;29;19915;-67
2023/09/05 06:58:22;;;;;;;4.45;2.83;;;;;;;24.87;50.14;101879.78;4862543;29;20108;-67
2023/09/05 07:00:53;;;;;;;5.63;3.55;;;;;;;24.68;50.77;101879.06;4879477;29;20520;-67
2023/09/05 07:03:22;;;;;;;5.43;3.00;;;;;;;24.18;53.48;101876.34;4878147;29;20036;-67
2023/09/05 07:05:52;;;;;;;5.05;3.35;;;;;;;24.52;51.01;101874.53;4875787;29;20474;-67
2023/09/05 07:08:17;;;;;;;5.55;3.10;;;;;;;26.49;46.13;101880.16;4860027;29;20025;-67
2023/09/05 07:10:43;;;;;;;4.32;3.15;;;;;;;27.50;45.53;101871.91;4855838;29;20514;-67
2023/09/05 07:13:09;;;;;;;4.25;3.10;;;;;;;28.07;42.09;101869.88;4863477;29;20151;-66
2023/09/05 07:15:35;;;;;;;5.03;2.85;;;;;;;28.39;42.51;101873.00;4890282;29;20135;-69
2023/09/05 07:18:00;;;;;;;4.30;2.72;;;;;;;27.77;42.45;101871.88;4851369;29;20493;-69
2023/09/05 07:20:26;;;;;;;4.50;3.00;;;;;;;26.22;45.48;101869.28;4838936;29;20040;-67
2023/09/05 07:22:51;;;;;;;5.60;2.95;;;;;;;25.34;48.26;101856.63;4846090;29;20092;-67
2023/09/05 07:25:27;;;;;;;3.92;2.95;;;;;;;24.66;50.82;101862.22;4849070;29;20097;-67
2023/09/05 07:27:55;;;;;;;7.30;3.10;;;;;;;24.00;55.06;101862.09;4862622;29;20044;-67
2023/09/05 07:30:21;;;;;;;4.30;3.00;;;;;;;23.14;55.01;101861.03;4862304;29;20366;-69
2023/09/05 07:32:46;;;;;;;5.88;3.13;;;;;;;23.24;57.31;101858.78;4863549;29;20127;-67
2023/09/05 07:35:12;;;;;;;5.18;3.13;;;;;;;22.90;56.54;101861.28;4863641;29;20556;-67
2023/09/05 07:37:38;;;;;;;5.55;3.00;;;;;;;22.73;59.11;101855.84;4886987;29;20483;-69
2023/09/05 07:40:05;;;;;;;3.63;2.78;;;;;;;22.49;58.15;101864.91;4876149;29;20065;-67
2023/09/05 07:42:31;;;;;;;5.60;3.25;;;;;;;22.30;59.15;101869.34;4856172;29;20041;-67
2023/09/05 07:44:57;;;;;;;5.00;3.00;;;;;;;22.35;58.01;101862.00;4856169;29;20093;-69
2023/09/05 07:47:23;;;;;;;8.63;3.00;;;;;;;22.71;57.43;101852.38;4875874;29;20032;-67
2023/09/05 07:49:48;;;;;;;5.45;2.83;;;;;;;22.78;59.34;101854.69;4841956;29;20040;-67
2023/09/05 07:52:14;;;;;;;4.15;2.75;;;;;;;22.77;57.25;101852.09;4846622;29;20527;-67
2023/09/05 07:54:39;;;;;;;4.07;2.60;;;;;;;22.95;57.70;101850.34;4844199;29;20456;-67
2023/09/05 07:57:05;;;;;;;4.25;2.70;;;;;;;22.81;58.25;101865.25;4878861;29;20045;-68
2023/09/05 07:59:31;;;;;;;5.07;2.45;;;;;;;22.55;58.31;101852.22;4880541;29;20075;-67
2023/09/05 08:01:57;;;;;;;4.95;2.67;;;;;;;22.23;58.82;101858.06;4863617;29;20112;-67
2023/09/05 08:04:22;;;;;;;3.45;2.65;;;;;;;22.27;59.31;101858.81;4844832;29;20025;-67
2023/09/05 08:06:48;;;;;;;5.60;2.60;;;;;;;22.49;64.42;101856.91;4862194;29;20518;-68
2023/09/05 08:09:14;;;;;;;4.40;2.35;;;;;;;22.27;60.65;101858.81;4878106;29;20024;-67
2023/09/05 08:11:42;;;;;;;5.32;2.70;;;;;;;22.30;61.95;101861.34;4839190;29;20039;-69
2023/09/05 08:14:07;;;;;;;3.58;2.63;;;;;;;22.39;63.32;101862.75;4858447;29;20037;-69
2023/09/05 08:16:53;;;;;;;4.57;2.80;;;;;;;22.30;61.11;101869.34;4862103;29;20510;-67
2023/09/05 08:19:19;;;;;;;4.30;2.53;;;;;;;22.25;61.59;101860.66;4879421;29;20067;-66
2023/09/05 08:21:45;;;;;;;3.58;2.60;;;;;;;22.38;61.08;101858.34;4863613;29;20053;-68
2023/09/05 08:24:10;;;;;;;7.75;2.45;;;;;;;22.40;60.97;101854.66;4843917;29;20088;-70
2023/09/05 08:26:36;;;;;;;6.10;2.53;;;;;;;22.39;59.30;101862.75;4854401;29;20048;-71
2023/09/05 08:29:03;;;;;;;3.85;2.47;;;;;;;22.62;62.53;101849.19;4882958;29;20041;-69
2023/09/05 08:31:30;;;;;;;6.60;2.40;;;;;;;22.58;59.79;101857.44;4873904;29;20032;-67
2023/09/05 08:33:57;;;;;;;3.78;2.80;;;;;;;22.84;63.92;101859.75;4873930;29;20048;-68
2023/09/05 08:36:24;;;;;;;3.88;2.70;;;;;;;22.82;60.23;101860.75;4855129;29;20094;-70
2023/09/05 08:38:50;;;;;;;5.35;2.58;;;;;;;22.80;60.86;101857.28;4887819;29;20123;-69
2023/09/05 08:41:16;;;;;;;5.88;2.63;;;;;;;22.92;61.42;101854.03;4879738;29;20028;-69
2023/09/05 08:43:43;;;;;;;5.22;2.80;;;;;;;22.96;59.81;101854.75;4871387;29;20068;-69
2023/09/05 08:46:10;;;;;;;3.88;2.40;;;;;;;23.04;61.13;101857.91;4883221;29;20043;-69
2023/09/05 08:48:36;;;;;;;2.80;2.30;;;;;;;23.07;57.80;101851.56;4879461;29;20128;-70
2023/09/05 08:51:04;;;;;;;6.25;2.20;;;;;;;23.15;59.30;101852.09;4867262;29;20123;-69
2023/09/05 08:53:31;;;;;;;3.85;2.30;;;;;;;23.22;57.53;101852.66;4872782;29;20084;-69
2023/09/05 08:55:58;;;;;;;5.78;2.83;;;;;;;23.40;61.00;101857.09;4878555;29;20055;-70
2023/09/05 08:58:25;;;;;;;3.40;2.53;;;;;;;23.33;58.00;101864.56;4856951;29;20060;-70
2023/09/05 09:00:51;;;;;;;3.35;2.28;;;;;;;23.33;57.82;101863.69;4874966;29;20029;-70
2023/09/05 09:03:17;;;;;;;4.65;2.50;;;;;;;23.37;59.01;101867.94;4847893;29;20592;-70
2023/09/05 09:05:46;;;;;;;3.13;2.40;;;;;;;23.47;59.92;101854.97;4864521;29;20441;-69
2023/09/05 09:08:12;;;;;;;5.97;2.28;;;;;;;23.53;57.14;101862.69;4844381;29;20032;-70
2023/09/05 09:10:38;;;;;;;4.03;2.28;;;;;;;23.66;56.54;101862.94;4877854;29;20041;-69
2023/09/05 09:13:18;;;;;;;3.95;2.50;;;;;;;23.83;57.97;101860.28;4865634;29;20044;-69
2023/09/05 09:15:46;;;;;;;;;;;;;;;24.04;58.47;101862.81;4862609;29;20051;-69
2023/09/05 09:18:14;;;;;;;3.20;2.47;;;;;;;24.09;57.25;101866.09;4864565;29;20014;-69
2023/09/05 09:20:44;;;;;;;3.20;2.08;;;;;;;24.04;56.12;101874.38;4876751;29;20024;-70
2023/09/05 09:23:09;;;;;;;3.60;2.05;;;;;;;24.12;56.29;101870.44;4879279;29;20043;-70
2023/09/05 09:25:35;;;;;;;3.33;1.90;;;;;;;24.19;56.53;101879.88;4847405;29;20460;-70
2023/09/05 09:28:04;;;;;;;4.75;2.28;;;;;;;24.17;55.55;101874.59;4858774;29;20048;-69
2023/09/05 09:30:30;;;;;;;6.45;2.38;;;;;;;24.17;55.10;101874.59;4877931;29;20040;-70
2023/09/05 09:32:55;;;;;;;4.72;2.47;;;;;;;24.24;56.48;101874.25;4879937;29;20130;-69
2023/09/05 09:35:22;;;;;;;2.55;2.10;;;;;;;24.36;57.62;101873.63;4875890;29;20028;-69
2023/09/05 09:37:51;;;;;;;3.47;2.08;;;;;;;24.32;55.18;101880.97;4876526;29;20045;-69
2023/09/05 09:40:17;;;;;;;4.93;2.58;;;;;;;24.41;56.63;101876.91;4887150;29;20574;-69
2023/09/05 09:42:49;;;;;;;5.38;2.20;;;;;;;24.52;56.60;101874.53;4880092;29;20057;-69
2023/09/05 09:45:18;;;;;;;3.78;2.15;;;;;;;24.33;54.00;101874.63;4868406;29;20049;-70
2023/09/05 09:47:52;;;;;;;3.45;2.25;;;;;;;24.51;57.08;101880.81;4886269;29;20115;-70
2023/09/05 09:50:21;;;;;;;2.72;2.10;;;;;;;24.45;54.39;101874.94;4880827;29;20446;-68
2023/09/05 09:52:52;;;;;;;3.55;2.10;;;;;;;24.62;56.01;101879.41;4870750;29;20056;-66
2023/09/05 09:55:21;;;;;;;4.80;2.67;;;;;;;24.67;54.95;101880.03;4885336;29;20039;-66
2023/09/05 09:58:01;;;;;;;5.80;2.40;;;;;;;24.73;56.31;101877.84;4866490;29;20481;-65
2023/09/05 10:00:28;;;;;;;4.88;2.38;;;;;;;24.77;54.29;101878.56;4878050;29;20141;-66
2023/09/05 10:02:54;;;;;;;4.95;2.50;;;;;;;24.95;55.15;101882.03;4867126;29;20135;-66
2023/09/05 10:05:23;;;;;;;5.90;2.03;;;;;;;24.90;55.11;101879.59;4872497;29;20123;-65
2023/09/05 10:07:51;;;;;;;3.47;2.08;;;;;;;25.09;57.01;101873.22;4866695;29;20036;-66
2023/09/05 10:10:18;;;;;;;3.95;2.05;;;;;;;25.34;58.24;101869.16;4891909;29;20029;-66
2023/09/05 10:12:45;;;;;;;4.15;2.38;;;;;;;25.16;53.59;101879.94;4877045;29;20088;-66
2023/09/05 10:15:13;;;;;;;4.47;2.25;;;;;;;25.25;56.08;101874.03;4868540;29;20095;-66
2023/09/05 10:17:41;;;;;;;3.25;2.20;;;;;;;25.19;54.05;101873.56;4866872;29;20868;-66
2023/09/05 10:20:07;;;;;;;5.20;2.30;;;;;;;25.28;54.42;101866.78;4880405;29;20056;-66
2023/09/05 10:22:37;;;;;;;7.80;2.83;;;;;;;25.31;54.03;101866.59;4879556;29;20062;-66
2023/09/05 10:25:06;;;;;;;5.50;2.40;;;;;;;25.14;51.91;101859.53;4877256;29;20041;-66
2023/09/05 10:27:34;;;;;;;5.20;2.25;;;;;;;25.27;52.65;101862.38;4888547;29;20033;-66
2023/09/05 10:29:59;;;;;;;3.72;1.80;;;;;;;25.20;52.53;101860.06;4890460;29;20492;-67
2023/09/05 10:32:25;;;;;;;3.75;2.00;;;;;;;25.28;51.80;101856.06;4880261;29;20032;-67
2023/09/05 10:34:50;;;;;;;4.47;2.33;;;;;;;25.41;55.64;101851.72;4877659;29;20032;-67
2023/09/05 10:37:26;;;;;;;5.07;2.30;;;;;;;25.38;53.79;101855.44;4882974;29;20036;-67
2023/09/05 10:39:57;;;;;;;5.00;2.00;;;;;;;25.57;52.93;101857.06;4884828;29;20063;-67
2023/09/05 10:42:33;;;;;;;4.90;2.25;;;;;;;25.67;52.99;101858.22;4863707;29;20033;-67
2023/09/05 10:45:15;;;;;;;4.07;2.13;;;;;;;25.73;53.44;101863.25;4880116;29;20032;-67
2023/09/05 10:47:40;;;;;;;6.63;2.20;;;;;;;25.80;53.39;101852.13;4877292;29;20403;-66
2023/09/05 10:50:09;;;;;;;4.97;1.98;;;;;;;25.88;53.83;101847.19;4876635;29;20047;-67
2023/09/05 10:52:36;;;;;;;4.68;2.08;;;;;;;25.75;52.02;101841.69;4879190;29;20060;-67
2023/09/05 10:55:32;;;;;;;4.82;2.08;;;;;;;26.00;53.98;101853.63;4852109;29;20127;-66
2023/09/05 10:58:01;;;;;;;3.53;1.77;;;;;;;26.03;50.69;101837.34;4880754;29;20031;-67
2023/09/05 11:00:29;;;;;;;3.70;1.80;;;;;;;26.00;49.53;101837.50;4865987;29;20426;-67
2023/09/05 11:03:09;;;;;;;4.72;2.22;;;;;;;26.00;49.79;101843.75;4879058;29;20482;-66
2023/09/05 11:05:35;;;;;;;4.30;2.22;;;;;;;26.20;52.82;101844.34;4870522;29;20032;-66
2023/09/05 11:08:01;;;;;;;3.33;1.92;;;;;;;26.17;52.09;101842.72;4884027;29;20037;-66
2023/09/05 11:10:39;;;;;;;5.38;2.30;;;;;;;26.21;52.19;101838.88;4866795;29;20040;-67
2023/09/05 11:13:14;;;;;;;3.88;2.13;;;;;;;26.17;51.21;101837.34;4866226;29;20055;-67
2023/09/05 11:15:43;;;;;;;5.75;2.75;;;;;;;26.31;51.11;101833.81;4860893;29;20035;-67
2023/09/05 11:18:17;;;;;;;5.20;2.10;;;;;;;26.26;50.89;101833.22;4880583;29;20040;-67
2023/09/05 11:20:50;;;;;;;4.57;1.90;;;;;;;26.31;52.37;101839.19;4872651;29;20020;-67
2023/09/05 11:23:17;;;;;;;3.28;2.20;;;;;;;26.43;52.34;101837.53;4863170;29;20040;-68
2023/09/05 11:25:50;;;;;;;5.82;1.92;;;;;;;26.49;50.62;101844.34;4884463;29;20016;-67
2023/09/05 11:28:16;;;;;;;4.53;1.90;;;;;;;26.71;49.71;101835.84;4876566;29;20434;-67
2023/09/05 11:30:46;;;;;;;4.15;1.80;;;;;;;26.84;48.91;101839.44;4897436;29;20460;-67
2023/09/05 11:33:16;;;;;;;3.67;1.98;;;;;;;26.75;48.35;101846.28;4862243;29;20037;-67
2023/09/05 11:35:43;;;;;;;;;;;;;;;27.04;50.20;101842.63;4875354;29;20043;-67
2023/09/05 11:38:09;;;;;;;2.85;1.85;;;;;;;26.90;48.34;101840.88;4890587;29;19915;-68
2023/09/05 11:40:40;;;;;;;2.83;1.80;;;;;;;26.85;49.34;101837.59;4868717;29;20125;-68
2023/09/05 11:43:08;;;;;;;4.82;1.80;;;;;;;26.76;48.53;101836.38;4876942;29;20540;-68
2023/09/05 11:45:45;;;;;;;4.88;2.00;;;;;;;26.78;47.96;101835.31;4888000;29;20730;-68
2023/09/05 11:48:14;;;;;;;3.42;1.70;;;;;;;26.81;48.17;101834.25;4882101;29;20172;-69
2023/09/05 11:50:43;;;;;;;3.78;1.90;;;;;;;26.84;49.93;101826.00;4863596;29;20390;-69
2023/09/05 11:53:16;;;;;;;4.57;2.25;;;;;;;26.74;49.22;101827.56;4878462;29;20052;-67
2023/09/05 11:55:46;;;;;;;3.53;2.05;;;;;;;26.87;51.38;101825.78;4872119;29;20037;-67
2023/09/05 11:58:13;;;;;;;;;;;;;;;26.94;51.97;101819.03;4901051;29;20393;-67
2023/09/05 12:00:44;;;;;;;4.53;1.70;;;;;;;26.80;49.35;101821.78;4893669;29;20240;-67
2023/09/05 12:03:10;;;;;;;3.63;1.85;;;;;;;26.86;51.11;101821.38;4882140;29;20043;-67
2023/09/05 12:05:37;;;;;;;3.35;1.58;;;;;;;26.99;53.40;101824.13;4884184;29;20032;-68
2023/09/05 12:08:05;;;;;;;2.17;1.80;;;;;;;26.93;49.87;101819.16;4877497;29;20032;-68